Time;durP1;ratioP1;P1;durP2;ratioP2;P2;SDS_P1;SDS_P2;PMS_P1;PMS_P2;Temp;Humidity;BMP_temperature;BMP_pressure;BME280_temperature;BME280_humidity;BME280_pressure;Samples;Min_cycle;Max_cycle;Signal;HPM_P1;HPM_P2
2021/05/12 00:02:15;;;;;;;14.18;7.18;;;;;;;9.82;94.47;95668.81;4939800;29;20525;-70
2021/05/12 00:04:43;;;;;;;;;;;;;;;9.75;94.34;95673.47;4938262;29;20043;-70
2021/05/12 00:07:10;;;;;;;13.85;6.53;;;;;;;9.81;94.17;95667.22;4935565;29;19946;-69
2021/05/12 00:09:35;;;;;;;14.15;7.25;;;;;;;9.76;94.00;95675.84;4936869;29;20056;-70
2021/05/12 00:12:01;;;;;;;13.45;7.20;;;;;;;9.79;93.86;95677.16;4923639;29;20054;-67
2021/05/12 00:14:30;;;;;;;15.57;7.55;;;;;;;9.65;94.34;95679.38;4921885;29;20558;-65
2021/05/12 00:16:56;;;;;;;16.23;8.13;;;;;;;9.68;94.55;95682.28;4935073;29;20039;-66
2021/05/12 00:19:22;;;;;;;15.18;7.50;;;;;;;9.72;94.41;95680.75;4934859;29;20046;-65
2021/05/12 00:21:57;;;;;;;16.27;8.23;;;;;;;9.78;94.49;95684.25;4935443;29;20044;-66
2021/05/12 00:24:22;;;;;;;13.77;7.63;;;;;;;9.82;93.92;95679.31;4916548;29;20143;-65
2021/05/12 00:26:48;;;;;;;15.20;8.18;;;;;;;9.76;94.13;95680.28;4920721;29;20470;-65
2021/05/12 00:29:17;;;;;;;13.95;7.45;;;;;;;9.74;94.45;95680.53;4935022;29;20499;-66
2021/05/12 00:31:45;;;;;;;14.93;7.45;;;;;;;9.77;94.00;95684.50;4935709;29;20130;-65
2021/05/12 00:34:11;;;;;;;14.03;7.47;;;;;;;9.76;93.79;95686.34;4938129;29;20368;-65
2021/05/12 00:36:37;;;;;;;16.05;7.53;;;;;;;9.78;94.10;95688.72;4939072;29;20341;-63
2021/05/12 00:39:04;;;;;;;14.07;7.53;;;;;;;9.80;94.15;95684.03;4938497;29;20503;-64
2021/05/12 00:41:30;;;;;;;15.85;8.05;;;;;;;9.85;94.17;95689.34;4936387;29;20119;-65
2021/05/12 00:43:56;;;;;;;13.07;6.93;;;;;;;9.82;94.15;95685.38;4937133;29;20094;-66
2021/05/12 00:46:25;;;;;;;12.00;6.82;;;;;;;9.79;93.87;95685.03;4937267;29;20103;-65
2021/05/12 00:48:51;;;;;;;14.52;7.30;;;;;;;9.73;93.92;95692.06;4939115;29;20480;-65
2021/05/12 00:51:17;;;;;;;13.32;6.55;;;;;;;9.81;93.87;95677.72;4936936;29;20049;-65
2021/05/12 00:53:42;;;;;;;13.48;7.00;;;;;;;9.68;93.93;95684.13;4936637;29;20168;-65
2021/05/12 00:56:12;;;;;;;13.32;6.78;;;;;;;9.73;93.61;95682.34;4935803;29;20059;-66
2021/05/12 00:58:38;;;;;;;12.60;7.13;;;;;;;9.69;93.10;95673.38;4941909;29;20051;-65
2021/05/12 01:01:04;;;;;;;13.48;6.75;;;;;;;9.79;93.33;95669.28;4941815;29;20036;-65
2021/05/12 01:03:30;;;;;;;13.18;6.88;;;;;;;9.67;93.96;95667.56;4937881;29;20047;-65
2021/05/12 01:06:00;;;;;;;16.25;7.80;;;;;;;9.61;94.28;95673.00;4935387;29;20460;-65
2021/05/12 01:08:27;;;;;;;15.85;7.22;;;;;;;9.54;94.33;95673.19;4938711;29;20051;-67
2021/05/12 01:10:53;;;;;;;14.65;7.75;;;;;;;9.56;94.33;95668.47;4939813;29;20102;-65
2021/05/12 01:13:21;;;;;;;14.38;7.70;;;;;;;9.55;94.46;95669.50;4942875;29;20700;-66
2021/05/12 01:15:47;;;;;;;13.38;6.97;;;;;;;9.62;94.40;95671.97;4929509;29;20551;-66
2021/05/12 01:18:15;;;;;;;14.30;7.53;;;;;;;9.62;94.34;95675.38;4934087;29;20040;-66
2021/05/12 01:20:54;;;;;;;15.40;7.75;;;;;;;9.58;94.56;95679.53;4945730;29;20454;-66
2021/05/12 01:23:23;;;;;;;13.88;7.47;;;;;;;9.75;94.42;95678.72;4948152;29;20051;-66
2021/05/12 01:25:51;;;;;;;16.38;7.85;;;;;;;9.66;94.81;95681.75;4947288;29;20554;-66
2021/05/12 01:28:18;;;;;;;14.05;7.90;;;;;;;9.69;94.09;95677.84;4947522;29;20044;-67
2021/05/12 01:30:54;;;;;;;15.60;7.93;;;;;;;9.66;93.98;95673.84;4949837;29;20052;-66
2021/05/12 01:33:20;;;;;;;14.48;7.50;;;;;;;9.56;94.87;95672.94;4940661;29;20104;-67
2021/05/12 01:35:45;;;;;;;14.43;7.65;;;;;;;9.55;94.59;95672.13;4938741;29;20040;-67
2021/05/12 01:38:12;;;;;;;15.18;7.10;;;;;;;9.56;94.52;95672.94;4939121;29;20074;-67
2021/05/12 01:40:40;;;;;;;13.98;7.30;;;;;;;9.61;94.85;95678.25;4938521;29;20119;-67
2021/05/12 01:43:06;;;;;;;;;;;;;;;9.56;95.07;95671.09;4939397;29;20566;-66
2021/05/12 01:45:33;;;;;;;12.95;6.38;;;;;;;9.53;94.99;95668.19;4963680;23;19962;-71
2021/05/12 01:48:01;;;;;;;13.98;7.50;;;;;;;9.57;94.69;95671.88;4951554;29;20410;-70
2021/05/12 01:50:27;;;;;;;14.73;7.82;;;;;;;9.62;94.26;95675.38;4957045;28;20047;-70
2021/05/12 01:52:52;;;;;;;13.13;6.63;;;;;;;9.67;94.94;95672.81;4944785;28;20150;-70
2021/05/12 01:55:19;;;;;;;16.60;7.93;;;;;;;9.65;94.44;95663.59;4938025;29;20437;-70
2021/05/12 01:57:45;;;;;;;14.40;7.97;;;;;;;9.49;95.02;95670.47;4937243;29;20059;-70
2021/05/12 02:00:25;;;;;;;14.57;7.35;;;;;;;9.52;94.65;95667.34;4941015;29;20043;-70
2021/05/12 02:02:52;;;;;;;16.05;7.82;;;;;;;9.50;94.92;95672.06;4947133;29;20070;-70
2021/05/12 02:05:18;;;;;;;14.80;7.63;;;;;;;9.51;94.92;95662.34;4951659;29;20466;-70
2021/05/12 02:07:44;;;;;;;16.95;7.65;;;;;;;9.49;95.16;95665.22;4964577;29;20063;-70
2021/05/12 02:10:10;;;;;;;14.60;7.40;;;;;;;9.50;94.92;95666.81;4957289;28;20040;-70
2021/05/12 02:12:37;;;;;;;14.32;7.10;;;;;;;9.60;95.15;95664.34;4942739;29;20044;-72
2021/05/12 02:15:03;;;;;;;14.95;7.15;;;;;;;9.59;95.02;95665.38;4938025;29;20519;-72
2021/05/12 02:17:29;;;;;;;14.40;7.25;;;;;;;9.54;94.85;95662.69;4938040;29;20522;-71
2021/05/12 02:19:55;;;;;;;15.50;7.80;;;;;;;9.43;95.17;95660.94;4939079;29;20608;-71
2021/05/12 02:22:20;;;;;;;14.02;7.18;;;;;;;9.46;95.46;95663.06;4985984;28;20040;-71
2021/05/12 02:24:46;;;;;;;15.23;6.90;;;;;;;9.56;95.53;95663.22;4963766;29;20098;-71
2021/05/12 02:27:12;;;;;;;13.70;6.57;;;;;;;9.60;95.48;95666.97;4956454;29;20043;-71
2021/05/12 02:29:41;;;;;;;12.35;6.00;;;;;;;9.53;94.73;95668.97;4945871;28;20067;-71
2021/05/12 02:32:06;;;;;;;11.52;5.55;;;;;;;9.66;94.69;95668.59;4956526;29;20499;-70
2021/05/12 02:34:32;;;;;;;11.85;5.75;;;;;;;9.50;94.54;95666.03;4953998;29;20125;-68
2021/05/12 02:36:58;;;;;;;11.57;5.35;;;;;;;9.53;94.67;95661.09;4956249;28;20143;-68
2021/05/12 02:39:27;;;;;;;12.75;6.07;;;;;;;9.54;95.08;95665.31;4956181;29;20106;-69
2021/05/12 02:41:53;;;;;;;10.68;4.80;;;;;;;9.62;95.03;95666.72;4970984;28;20035;-67
2021/05/12 02:44:18;;;;;;;11.45;4.82;;;;;;;9.55;94.93;95661.63;4946793;29;20059;-66
2021/05/12 02:46:45;;;;;;;10.00;4.93;;;;;;;9.67;94.58;95662.31;4955795;28;20081;-66
2021/05/12 02:49:10;;;;;;;10.15;4.18;;;;;;;9.61;94.42;95660.66;4947399;29;20079;-67
2021/05/12 02:51:37;;;;;;;9.20;4.07;;;;;;;9.60;94.79;95656.44;4936866;29;20039;-67
2021/05/12 02:54:03;;;;;;;8.65;3.50;;;;;;;9.70;94.45;95661.84;4942192;29;20043;-66
2021/05/12 02:56:31;;;;;;;7.18;2.60;;;;;;;9.71;93.62;95655.53;4963597;28;20419;-67
2021/05/12 02:58:56;;;;;;;8.02;2.88;;;;;;;9.69;92.88;95657.63;4953050;28;20051;-67
2021/05/12 03:01:22;;;;;;;6.55;2.40;;;;;;;9.72;92.92;95665.00;4950400;29;20049;-67
2021/05/12 03:03:48;;;;;;;7.60;2.70;;;;;;;9.70;93.19;95661.06;4939497;28;20054;-69
2021/05/12 03:06:14;;;;;;;6.82;2.20;;;;;;;9.72;92.66;95662.38;4949495;29;20409;-67
2021/05/12 03:08:40;;;;;;;6.97;2.15;;;;;;;9.67;92.16;95657.06;4937471;29;20637;-68
2021/05/12 03:11:05;;;;;;;5.93;2.15;;;;;;;9.59;92.34;95657.50;4946989;29;20118;-68
2021/05/12 03:13:34;;;;;;;5.95;1.80;;;;;;;9.68;91.84;95663.09;4954722;29;20524;-69
2021/05/12 03:16:00;;;;;;;5.10;1.73;;;;;;;9.63;91.93;95663.84;4941401;28;20073;-69
2021/05/12 03:18:26;;;;;;;4.88;1.55;;;;;;;9.70;91.68;95664.47;4936907;29;20503;-69
2021/05/12 03:20:53;;;;;;;3.72;1.27;;;;;;;9.70;91.08;95668.94;4949120;29;20038;-69
2021/05/12 03:23:18;;;;;;;4.95;1.60;;;;;;;9.57;89.66;95667.44;4949267;28;20087;-68
2021/05/12 03:25:44;;;;;;;3.05;1.20;;;;;;;9.46;90.65;95660.44;4942946;29;20043;-70
2021/05/12 03:28:10;;;;;;;4.97;1.45;;;;;;;9.55;90.71;95666.09;4936992;29;20396;-70
2021/05/12 03:30:40;;;;;;;4.75;1.40;;;;;;;9.54;89.86;95667.13;4948223;28;20507;-70
2021/05/12 03:33:08;;;;;;;4.13;1.30;;;;;;;9.60;90.19;95668.78;4950176;28;20039;-69
2021/05/12 03:35:37;;;;;;;4.90;1.40;;;;;;;9.53;89.26;95660.31;4945938;29;20051;-69
2021/05/12 03:38:05;;;;;;;4.15;1.20;;;;;;;9.55;88.45;95664.25;4954045;28;20122;-69
2021/05/12 03:40:32;;;;;;;5.13;1.42;;;;;;;9.43;89.21;95658.31;4955436;29;20043;-70
2021/05/12 03:42:59;;;;;;;6.03;1.40;;;;;;;9.32;90.07;95664.47;4938604;28;20134;-70
2021/05/12 03:45:25;;;;;;;4.07;1.40;;;;;;;9.33;89.03;95660.81;4943817;29;20047;-70
2021/05/12 03:47:53;;;;;;;4.20;1.30;;;;;;;9.28;90.31;95668.59;4945573;28;20047;-70
2021/05/12 03:50:21;;;;;;;5.07;1.40;;;;;;;9.21;91.09;95663.53;4941775;29;20047;-70
2021/05/12 03:52:46;;;;;;;5.40;1.52;;;;;;;9.33;89.99;95672.09;4954400;29;20496;-70
2021/05/12 03:55:15;;;;;;;5.10;1.50;;;;;;;9.42;89.68;95672.50;4950065;29;20095;-69
2021/05/12 03:57:41;;;;;;;4.55;1.40;;;;;;;9.22;90.59;95678.22;4954182;29;20043;-69
2021/05/12 04:00:09;;;;;;;5.05;1.45;;;;;;;9.29;90.77;95676.22;4949558;28;20078;-69
2021/05/12 04:02:35;;;;;;;7.10;1.95;;;;;;;9.33;89.16;95677.34;4954051;29;20050;-69
2021/05/12 04:05:00;;;;;;;5.38;1.60;;;;;;;9.26;90.00;95681.19;4936383;28;20500;-69
2021/05/12 04:07:27;;;;;;;5.78;1.70;;;;;;;9.42;89.48;95675.13;4950110;29;20399;-70
2021/05/12 04:09:53;;;;;;;5.90;1.50;;;;;;;9.30;89.57;95684.91;4956083;28;20530;-70
2021/05/12 04:12:23;;;;;;;5.57;1.60;;;;;;;9.28;89.63;95686.97;4942532;29;20048;-70
2021/05/12 04:14:50;;;;;;;5.15;1.70;;;;;;;9.27;90.28;95683.56;4942829;29;20054;-71
2021/05/12 04:17:16;;;;;;;4.65;1.50;;;;;;;9.42;89.31;95690.88;4935817;29;20091;-70
2021/05/12 04:19:44;;;;;;;4.90;1.75;;;;;;;9.40;88.82;95693.72;4946469;29;20043;-70
2021/05/12 04:22:09;;;;;;;5.63;1.63;;;;;;;9.29;88.70;95693.81;4953987;29;20067;-69
2021/05/12 04:24:35;;;;;;;6.63;2.13;;;;;;;9.14;89.64;95700.41;4946719;28;20499;-68
2021/05/12 04:27:02;;;;;;;6.82;2.00;;;;;;;9.23;89.10;95695.56;4935998;29;20043;-68
2021/05/12 04:29:32;;;;;;;7.93;2.00;;;;;;;9.29;89.16;95696.44;4951905;29;20039;-68
2021/05/12 04:31:58;;;;;;;7.43;2.15;;;;;;;9.29;90.53;95696.44;4967740;28;20043;-70
2021/05/12 04:34:26;;;;;;;7.00;2.03;;;;;;;9.40;88.43;95701.59;4961787;29;20044;-71
2021/05/12 04:36:55;;;;;;;6.43;2.03;;;;;;;9.38;87.82;95702.88;4948214;29;20050;-70
2021/05/12 04:39:21;;;;;;;7.57;2.50;;;;;;;9.23;89.39;95707.88;4944198;29;20114;-69
2021/05/12 04:41:47;;;;;;;9.02;1.95;;;;;;;9.29;89.61;95710.34;4954148;28;20496;-70
2021/05/12 04:44:12;;;;;;;7.88;2.30;;;;;;;9.28;88.67;95714.00;4954752;28;20054;-70
2021/05/12 04:46:43;;;;;;;8.93;2.40;;;;;;;9.23;89.90;95715.75;4955771;29;20140;-70
2021/05/12 04:49:11;;;;;;;8.00;2.25;;;;;;;9.27;90.02;95715.06;4955508;28;20420;-69
2021/05/12 04:51:37;;;;;;;;;;;;;;;9.30;89.71;95719.81;4953091;28;20091;-68
2021/05/12 04:54:03;;;;;;;8.73;2.35;;;;;;;9.33;90.10;95721.16;4958829;29;19922;-67
2021/05/12 04:56:29;;;;;;;9.15;2.60;;;;;;;9.31;89.92;95720.59;4950487;29;20043;-68
2021/05/12 04:58:54;;;;;;;6.80;2.67;;;;;;;9.27;90.52;95720.31;4935232;29;20583;-68
2021/05/12 05:01:20;;;;;;;8.23;2.53;;;;;;;9.32;89.82;95722.22;4942520;29;20046;-67
2021/05/12 05:03:49;;;;;;;6.63;2.20;;;;;;;9.38;89.71;95721.25;4954064;29;20091;-69
2021/05/12 05:06:15;;;;;;;5.93;2.30;;;;;;;9.35;88.89;95732.22;4954264;28;20521;-67
2021/05/12 05:08:41;;;;;;;7.57;2.80;;;;;;;9.26;89.29;95731.03;4956048;29;20051;-70
2021/05/12 05:11:08;;;;;;;8.65;2.90;;;;;;;9.26;89.49;95728.41;4954279;29;20070;-68
2021/05/12 05:13:37;;;;;;;8.25;2.55;;;;;;;9.34;89.50;95726.19;4952641;28;20042;-67
2021/05/12 05:16:03;;;;;;;9.45;2.85;;;;;;;9.50;88.13;95721.94;4953730;29;20051;-66
2021/05/12 05:18:30;;;;;;;8.50;3.25;;;;;;;9.45;87.71;95721.88;4953440;29;20047;-67
2021/05/12 05:20:58;;;;;;;8.73;3.03;;;;;;;9.52;87.66;95721.69;4955108;28;20058;-68
2021/05/12 05:23:24;;;;;;;7.00;2.65;;;;;;;9.63;86.94;95724.25;4954456;28;20046;-67
2021/05/12 05:25:52;;;;;;;10.82;2.80;;;;;;;9.56;87.43;95723.59;4953937;29;20051;-68
2021/05/12 05:28:18;;;;;;;7.20;2.97;;;;;;;9.49;87.07;95716.94;4954480;28;20098;-69
2021/05/12 05:30:44;;;;;;;7.82;3.00;;;;;;;9.62;87.75;95727.09;4955012;29;20035;-70
2021/05/12 05:33:09;;;;;;;8.68;3.20;;;;;;;9.58;87.26;95724.19;4953954;29;20047;-66
2021/05/12 05:35:35;;;;;;;11.52;3.60;;;;;;;9.52;87.37;95713.81;4951208;28;20048;-65
2021/05/12 05:38:02;;;;;;;9.02;3.63;;;;;;;9.57;87.30;95727.81;4945838;29;20059;-69
2021/05/12 05:40:28;;;;;;;8.55;3.38;;;;;;;9.58;87.03;95732.06;4953922;28;20039;-69
2021/05/12 05:42:58;;;;;;;11.88;3.97;;;;;;;9.63;87.03;95731.31;4949029;28;20055;-65
2021/05/12 05:45:26;;;;;;;9.40;4.05;;;;;;;9.66;87.15;95729.00;4948875;29;20047;-67
2021/05/12 05:47:52;;;;;;;;;;;;;;;9.71;87.71;95733.53;4954294;28;20526;-66
2021/05/12 05:50:18;;;;;;;10.63;4.32;;;;;;;9.69;87.79;95733.78;4955077;29;20175;-66
2021/05/12 05:52:43;;;;;;;12.00;4.15;;;;;;;9.88;86.96;95729.03;4955892;28;20067;-65
2021/05/12 05:55:11;;;;;;;9.20;4.10;;;;;;;9.78;87.15;95730.75;4960064;29;20050;-67
2021/05/12 05:57:40;;;;;;;;;;;;;;;9.82;87.52;95731.84;4957572;28;20043;-64
2021/05/12 06:00:07;;;;;;;10.05;4.30;;;;;;;9.75;87.60;95725.97;4957306;28;19931;-65
2021/05/12 06:02:35;;;;;;;9.50;4.22;;;;;;;9.94;86.68;95735.16;4956510;29;20083;-65
2021/05/12 06:05:02;;;;;;;13.50;5.13;;;;;;;9.87;86.84;95734.53;4955239;28;20054;-66
2021/05/12 06:07:27;;;;;;;11.90;5.00;;;;;;;9.84;87.42;95735.81;4957258;29;20077;-67
2021/05/12 06:09:53;;;;;;;14.77;5.13;;;;;;;9.83;87.07;95733.44;4957887;28;20062;-67
2021/05/12 06:12:20;;;;;;;11.25;4.55;;;;;;;9.93;86.26;95733.56;4956629;28;20122;-65
2021/05/12 06:14:45;;;;;;;12.82;4.28;;;;;;;9.96;86.34;95733.09;4956829;29;20043;-65
2021/05/12 06:17:13;;;;;;;11.75;4.50;;;;;;;10.04;85.16;95740.56;4971732;28;20511;-67
2021/05/12 06:19:39;;;;;;;12.82;4.07;;;;;;;10.06;86.01;95732.41;4956518;28;20392;-66
2021/05/12 06:22:05;;;;;;;10.57;4.07;;;;;;;10.38;85.49;95740.47;4956970;28;20071;-67
2021/05/12 06:24:30;;;;;;;10.55;4.45;;;;;;;10.10;86.34;95744.03;4957696;29;20070;-67
2021/05/12 06:26:57;;;;;;;9.73;3.67;;;;;;;10.04;86.27;95745.00;4957676;29;20039;-66
2021/05/12 06:29:23;;;;;;;12.27;4.20;;;;;;;10.03;86.97;95749.47;4956920;28;20046;-68
2021/05/12 06:31:49;;;;;;;9.73;4.18;;;;;;;9.97;86.28;95750.44;4956670;29;20043;-67
2021/05/12 06:34:15;;;;;;;11.15;4.43;;;;;;;10.03;86.71;95754.72;4956592;28;20047;-67
2021/05/12 06:36:41;;;;;;;11.43;4.15;;;;;;;10.04;86.06;95745.81;4971952;28;20118;-68
2021/05/12 06:39:07;;;;;;;7.70;3.50;;;;;;;10.30;85.17;95754.03;4957255;28;20135;-66
2021/05/12 06:41:35;;;;;;;8.95;3.63;;;;;;;10.13;85.42;95752.25;4957289;29;20054;-67
2021/05/12 06:44:04;;;;;;;9.57;3.40;;;;;;;10.07;85.65;95750.59;4956655;29;20051;-67
2021/05/12 06:46:30;;;;;;;8.55;3.55;;;;;;;10.23;86.03;95749.78;4958345;28;20491;-66
2021/05/12 06:48:59;;;;;;;9.05;3.65;;;;;;;10.31;85.09;95747.75;4959960;29;20047;-67
2021/05/12 06:51:27;;;;;;;9.63;3.30;;;;;;;10.47;85.46;95749.50;4958275;28;20066;-66
2021/05/12 06:53:52;;;;;;;10.13;3.80;;;;;;;10.36;84.63;95751.22;4974321;28;20410;-65
2021/05/12 06:56:18;;;;;;;8.40;3.50;;;;;;;10.33;85.04;95753.53;4972914;28;20043;-66
2021/05/12 06:58:44;;;;;;;8.02;3.10;;;;;;;10.45;83.88;95748.97;4957624;29;20491;-66
2021/05/12 07:01:10;;;;;;;7.57;3.08;;;;;;;10.46;82.06;95745.28;4956785;28;20451;-66
2021/05/12 07:33:55;;;;;;;9.13;4.30;;;;;;;10.24;85.19;95746.09;4956326;29;20069;-66
2021/05/12 07:36:21;;;;;;;10.32;4.55;;;;;;;10.22;86.40;95740.28;4956104;28;20043;-64
2021/05/12 07:38:47;;;;;;;11.95;4.90;;;;;;;10.27;84.90;95744.00;4958171;28;20123;-66
2021/05/12 07:41:15;;;;;;;12.65;4.88;;;;;;;10.14;84.86;95743.31;4972603;28;20415;-66
2021/05/12 07:43:41;;;;;;;;;;;;;;;10.07;86.09;95747.97;4956224;28;20040;-65
2021/05/12 07:46:06;;;;;;;12.63;5.93;;;;;;;10.15;87.10;95747.53;4954494;23;19926;-73
2021/05/12 07:48:35;;;;;;;12.25;4.38;;;;;;;10.16;86.22;95749.09;4935647;29;20138;-69
2021/05/12 07:51:01;;;;;;;10.52;4.95;;;;;;;10.19;88.23;95753.88;4935023;29;20139;-69
2021/05/12 07:53:27;;;;;;;10.02;4.82;;;;;;;10.11;86.59;95756.13;4936743;29;20062;-70
2021/05/12 07:55:53;;;;;;;10.52;4.65;;;;;;;10.46;86.19;95753.19;4936748;29;20575;-69
2021/05/12 07:58:19;;;;;;;10.13;4.22;;;;;;;10.32;85.46;95757.22;4937031;29;20118;-69
2021/05/12 08:00:46;;;;;;;9.55;4.43;;;;;;;10.14;85.48;95751.19;4950994;29;20044;-69
2021/05/12 08:03:12;;;;;;;10.48;4.32;;;;;;;10.26;86.43;95753.72;4935744;28;20411;-70
2021/05/12 08:05:37;;;;;;;8.98;3.30;;;;;;;10.31;86.24;95755.63;4934577;29;20036;-69
2021/05/12 08:08:04;;;;;;;10.35;3.83;;;;;;;10.14;86.02;95753.03;4934821;29;20051;-69
2021/05/12 08:10:30;;;;;;;10.07;3.47;;;;;;;10.03;85.30;95749.47;4936714;29;20103;-69
2021/05/12 08:12:56;;;;;;;9.00;3.65;;;;;;;9.97;85.18;95753.88;4941590;29;20043;-69
2021/05/12 08:15:22;;;;;;;9.82;4.22;;;;;;;9.78;85.68;95751.75;4952061;29;20067;-68
2021/05/12 08:17:47;;;;;;;9.48;4.20;;;;;;;9.86;87.65;95754.78;4936313;29;20039;-70
2021/05/12 08:20:13;;;;;;;9.30;3.88;;;;;;;9.84;86.51;95756.81;4936384;29;20078;-70
2021/05/12 08:22:42;;;;;;;8.52;3.65;;;;;;;10.04;86.08;95750.28;4951929;29;20457;-70
2021/05/12 08:25:09;;;;;;;9.35;2.90;;;;;;;9.97;84.39;95756.50;4936133;29;20119;-69
2021/05/12 08:27:35;;;;;;;7.30;2.88;;;;;;;9.97;85.57;95760.97;4936314;29;20103;-71
2021/05/12 08:30:02;;;;;;;8.10;3.10;;;;;;;9.95;83.63;95757.75;4936012;29;20082;-70
2021/05/12 08:32:28;;;;;;;11.65;4.78;;;;;;;10.03;85.27;95757.34;4936410;29;20095;-70
2021/05/12 08:34:56;;;;;;;11.57;4.60;;;;;;;10.14;85.75;95751.19;4935578;29;20054;-70
2021/05/12 08:37:22;;;;;;;7.45;3.22;;;;;;;10.27;83.65;95760.56;4936301;29;20415;-69
2021/05/12 08:39:47;;;;;;;8.95;3.70;;;;;;;10.19;85.54;95764.41;4936115;29;20051;-71
2021/05/12 08:42:16;;;;;;;9.10;3.67;;;;;;;10.08;85.04;95756.63;4935986;29;20050;-70
2021/05/12 08:44:43;;;;;;;10.07;3.63;;;;;;;10.15;85.70;95759.88;4935982;29;20048;-70
2021/05/12 08:47:14;;;;;;;8.40;3.95;;;;;;;10.19;84.85;95759.16;4937221;29;20047;-70
2021/05/12 08:49:41;;;;;;;8.20;3.67;;;;;;;10.13;84.41;95752.25;4936428;29;20055;-69
2021/05/12 08:52:07;;;;;;;8.13;3.45;;;;;;;10.09;84.74;95761.63;4936112;29;20099;-69
2021/05/12 08:54:34;;;;;;;10.88;4.85;;;;;;;10.00;85.05;95755.19;4935850;29;20523;-69
2021/05/12 08:56:59;;;;;;;9.30;4.15;;;;;;;9.92;86.21;95756.44;4950644;28;20083;-69
2021/05/12 08:59:26;;;;;;;9.32;4.15;;;;;;;9.96;86.47;95754.91;4934527;29;20044;-69
2021/05/12 09:01:54;;;;;;;10.20;5.43;;;;;;;9.99;84.39;95758.88;4935676;29;20047;-71
2021/05/12 09:04:20;;;;;;;10.70;4.05;;;;;;;9.83;85.08;95757.88;4935455;29;20040;-70
2021/05/12 09:06:46;;;;;;;8.93;4.28;;;;;;;9.83;85.14;95765.75;4935431;29;20040;-72
2021/05/12 09:09:14;;;;;;;12.65;4.35;;;;;;;9.72;85.67;95764.81;4950568;29;20051;-70
2021/05/12 09:11:39;;;;;;;9.83;4.33;;;;;;;9.83;84.64;95759.69;4935644;29;20102;-70
2021/05/12 09:14:28;;;;;;;9.63;4.25;;;;;;;10.01;84.97;95754.19;4935250;29;20135;-70
2021/05/12 09:16:54;;;;;;;9.15;3.85;;;;;;;9.95;85.14;95757.75;4936081;29;20507;-70
2021/05/12 09:19:23;;;;;;;12.98;4.20;;;;;;;10.05;84.49;95762.38;4935529;29;20052;-70
2021/05/12 09:21:52;;;;;;;11.40;5.13;;;;;;;10.11;84.47;95750.88;4950362;28;20142;-70
2021/05/12 09:24:23;;;;;;;12.32;4.40;;;;;;;10.07;83.14;95750.59;4936446;29;20044;-72
2021/05/12 09:26:51;;;;;;;11.05;3.60;;;;;;;10.02;81.56;95752.34;4937968;29;20055;-69
2021/05/12 09:29:25;;;;;;;8.73;3.40;;;;;;;9.97;84.08;95753.06;4938429;29;20044;-68
2021/05/12 09:31:52;;;;;;;8.75;4.30;;;;;;;10.08;84.47;95759.25;4940488;29;20127;-74
2021/05/12 09:34:18;;;;;;;9.68;4.15;;;;;;;10.09;84.56;95748.50;4939498;29;20126;-70
2021/05/12 09:36:43;;;;;;;10.57;4.53;;;;;;;10.05;84.83;95757.09;4954712;29;20134;-69
2021/05/12 09:39:09;;;;;;;8.10;3.80;;;;;;;10.10;83.36;95754.56;4939445;29;20179;-71
2021/05/12 09:41:36;;;;;;;12.73;4.53;;;;;;;9.97;83.61;95755.72;4938921;29;20050;-69
2021/05/12 09:44:04;;;;;;;12.80;4.95;;;;;;;10.20;83.46;95755.47;4953741;29;20042;-70
2021/05/12 09:46:33;;;;;;;10.88;4.25;;;;;;;9.97;81.30;95755.72;4953853;28;20047;-69
2021/05/12 09:49:14;;;;;;;10.85;4.15;;;;;;;9.90;84.81;95761.13;4940062;29;20078;-68
2021/05/12 09:51:42;;;;;;;12.55;5.18;;;;;;;10.06;85.74;95763.94;4939171;29;20139;-69
2021/05/12 09:54:14;;;;;;;9.95;4.57;;;;;;;10.13;82.89;95757.50;4939798;29;20071;-69
2021/05/12 09:56:42;;;;;;;11.35;4.10;;;;;;;10.17;80.89;95765.66;4941514;29;20486;-70
2021/05/12 09:59:08;;;;;;;;;;;;;;;10.17;82.91;95755.97;4940598;28;20044;-69
2021/05/12 10:01:46;;;;;;;11.45;4.78;;;;;;;10.15;83.04;95757.25;4940693;29;19929;-72
2021/05/12 10:04:24;;;;;;;;;;;;;;;10.22;82.64;95753.41;4966256;29;20043;-70
2021/05/12 10:06:51;;;;;;;12.90;4.80;;;;;;;10.34;83.33;95755.16;4951258;29;19926;-71
2021/05/12 10:09:19;;;;;;;11.35;4.60;;;;;;;10.26;80.88;95759.00;4954464;28;20130;-71
2021/05/12 10:12:04;;;;;;;10.98;5.03;;;;;;;10.12;82.06;95763.00;4939568;29;20416;-70
2021/05/12 10:14:32;;;;;;;11.07;4.40;;;;;;;10.17;79.85;95758.59;4940314;29;20070;-71
2021/05/12 10:16:59;;;;;;;11.90;5.03;;;;;;;10.24;81.85;95756.63;4939930;29;20099;-71
2021/05/12 10:19:30;;;;;;;11.10;5.20;;;;;;;10.18;81.94;95757.56;4955132;29;20044;-71
2021/05/12 10:21:59;;;;;;;11.80;4.78;;;;;;;10.35;81.34;95760.16;4954352;28;20381;-71
2021/05/12 10:24:25;;;;;;;11.50;4.95;;;;;;;10.35;81.85;95757.53;4938880;29;20071;-70
2021/05/12 10:26:53;;;;;;;10.77;5.07;;;;;;;10.51;81.07;95750.63;4938851;29;20039;-70
2021/05/12 10:29:20;;;;;;;;;;;;;;;10.38;80.31;95748.34;4939767;29;20314;-73
2021/05/12 10:31:46;;;;;;;11.10;4.75;;;;;;;10.58;80.86;95756.47;4938739;29;19974;-70
2021/05/12 10:34:17;;;;;;;12.02;4.97;;;;;;;10.56;79.48;95745.41;4938518;29;20040;-69
2021/05/12 10:36:44;;;;;;;10.18;4.68;;;;;;;10.58;80.26;95745.94;4938583;29;20043;-70
2021/05/12 10:39:10;;;;;;;10.88;4.75;;;;;;;10.70;81.68;95743.97;4938187;29;20087;-71
2021/05/12 10:41:38;;;;;;;11.85;4.97;;;;;;;11.16;80.65;95741.78;4938396;29;20143;-71
2021/05/12 10:44:10;;;;;;;9.73;4.65;;;;;;;11.26;77.90;95741.88;4938450;29;20047;-71
2021/05/12 10:46:46;;;;;;;9.90;4.18;;;;;;;11.34;77.32;95743.25;4938421;29;20040;-69
2021/05/12 10:49:23;;;;;;;11.18;4.90;;;;;;;11.00;80.53;95738.22;4953166;28;20044;-70
2021/05/12 10:51:51;;;;;;;10.77;4.90;;;;;;;10.77;79.50;95744.59;4938596;29;20036;-70
2021/05/12 10:54:52;;;;;;;10.93;4.50;;;;;;;11.04;79.82;95749.06;4953569;28;20490;-71
2021/05/12 10:57:46;;;;;;;10.65;4.60;;;;;;;11.16;80.83;95741.00;4933587;28;20055;-70
2021/05/12 11:00:13;;;;;;;11.63;4.32;;;;;;;11.42;79.49;95745.41;4939021;29;20047;-70
2021/05/12 11:03:01;;;;;;;8.15;3.55;;;;;;;11.55;80.30;95742.34;4938143;29;20279;-70
2021/05/12 11:05:58;;;;;;;9.70;4.00;;;;;;;11.60;77.96;95741.59;4936772;29;20184;-69
2021/05/12 11:08:27;;;;;;;7.97;3.20;;;;;;;11.43;76.97;95740.94;4938624;29;20103;-69
2021/05/12 11:10:57;;;;;;;8.52;3.00;;;;;;;11.17;75.97;95730.22;4938056;29;20127;-70
2021/05/12 11:13:26;;;;;;;8.18;3.42;;;;;;;11.03;78.33;95731.66;4937596;29;20047;-70
2021/05/12 11:15:55;;;;;;;7.55;2.90;;;;;;;11.18;78.76;95728.38;4938388;29;20048;-71
2021/05/12 11:18:49;;;;;;;10.20;3.08;;;;;;;11.26;77.02;95726.06;4937792;29;20573;-70
2021/05/12 11:21:34;;;;;;;7.75;3.20;;;;;;;11.43;77.26;95730.41;4937545;29;20043;-70
2021/05/12 11:24:21;;;;;;;9.32;3.45;;;;;;;11.59;73.25;95734.75;4937142;29;20419;-71
2021/05/12 11:27:17;;;;;;;9.98;3.90;;;;;;;11.67;74.49;95723.72;4937811;29;20044;-70
2021/05/12 11:32:13;;;;;;;11.02;4.68;;;;;;;11.57;74.50;95719.19;4938942;29;20091;-71
2021/05/12 11:34:43;;;;;;;9.88;4.10;;;;;;;11.54;73.60;95716.28;4937229;29;20448;-70
2021/05/12 11:37:14;;;;;;;8.88;4.18;;;;;;;11.47;73.70;95710.44;4936978;29;20058;-70
2021/05/12 11:39:41;;;;;;;11.00;4.20;;;;;;;11.69;74.04;95719.00;4937242;29;20432;-69
2021/05/12 11:42:18;;;;;;;11.15;5.28;;;;;;;11.75;75.15;95715.34;4936887;29;20115;-71
2021/05/12 11:44:44;;;;;;;9.38;4.57;;;;;;;11.84;73.55;95718.34;4937026;29;20504;-69
2021/05/12 11:47:10;;;;;;;12.93;4.70;;;;;;;11.52;75.19;95721.00;4937333;29;20107;-71
2021/05/12 11:49:39;;;;;;;12.57;4.15;;;;;;;11.59;74.25;95724.19;4937175;29;20071;-71
2021/05/12 11:52:05;;;;;;;10.48;4.38;;;;;;;11.10;74.93;95713.84;4937102;29;20067;-70
2021/05/12 11:54:31;;;;;;;11.35;4.38;;;;;;;11.28;74.73;95726.59;4947617;29;20048;-70
2021/05/12 11:56:59;;;;;;;10.70;4.63;;;;;;;11.28;75.34;95717.91;4957292;29;20072;-70
2021/05/12 11:59:27;;;;;;;11.70;5.15;;;;;;;11.31;74.17;95717.44;4942741;29;20043;-70
2021/05/12 12:02:04;;;;;;;12.00;4.63;;;;;;;11.38;74.86;95718.00;4937457;29;20043;-70
2021/05/12 12:07:06;;;;;;;9.45;4.22;;;;;;;11.87;72.89;95719.66;4937277;29;20393;-70
2021/05/12 12:09:32;;;;;;;11.33;4.70;;;;;;;11.74;72.77;95726.94;4936261;29;20070;-71
2021/05/12 12:11:59;;;;;;;11.32;4.43;;;;;;;11.36;72.39;95721.94;4936245;29;20063;-71
2021/05/12 12:14:28;;;;;;;12.98;4.63;;;;;;;11.39;72.50;95724.84;4936120;29;20047;-71
2021/05/12 12:16:57;;;;;;;11.43;5.18;;;;;;;11.48;73.09;95723.34;4937061;28;20047;-69